Wetterdaten: Dienstag, 24.03.2015
Datum Zeit Auen-Temp. Temp gefhlt Luftfeuchte Luftdruck Regen Wind Richtung Richtung Taupunkt Windben
24.03.2015 00:00 -0,2 C -0,6 C 92 % 1011,6 hPa 0,0 l/m 0,0 km/h (0 Bft) O-SO 112 -1,3 C 0,0 km/h (0 Bft)
24.03.2015 00:05 -0,2 C -0,6 C 92 % 1011,6 hPa 0,0 l/m 0,0 km/h (0 Bft) O-SO 112 -1,3 C 0,0 km/h (0 Bft)
24.03.2015 00:10 -0,1 C -0,5 C 92 % 1011,6 hPa 0,0 l/m 0,0 km/h (0 Bft) O-NO 67 -1,2 C 0,0 km/h (0 Bft)
24.03.2015 00:15 -0,2 C -0,6 C 92 % 1011,6 hPa 0,0 l/m 0,0 km/h (0 Bft) NO 45 -1,3 C 0,0 km/h (0 Bft)
24.03.2015 00:20 0,2 C -0,3 C 92 % 1011,6 hPa 0,0 l/m 0,0 km/h (0 Bft) O-NO 67 -0,9 C 0,0 km/h (0 Bft)
24.03.2015 00:25 -0,1 C -0,5 C 92 % 1011,3 hPa 0,0 l/m 0,0 km/h (0 Bft) O-SO 112 -1,2 C 0,0 km/h (0 Bft)
24.03.2015 00:30 -0,2 C -0,6 C 92 % 1011,3 hPa 0,0 l/m 0,0 km/h (0 Bft) O-SO 112 -1,3 C 0,0 km/h (0 Bft)
24.03.2015 00:35 -0,1 C -0,6 C 92 % 1011,3 hPa 0,0 l/m 0,0 km/h (0 Bft) SO 135 -1,2 C 0,0 km/h (0 Bft)
24.03.2015 00:40 0,2 C -0,3 C 88 % 1011,3 hPa 0,0 l/m 0,0 km/h (0 Bft) O 90 -1,5 C 0,0 km/h (0 Bft)
24.03.2015 00:45 0,1 C -0,4 C 92 % 1011,2 hPa 0,0 l/m 0,0 km/h (0 Bft) NO 45 -1,0 C 0,0 km/h (0 Bft)
24.03.2015 00:50 0,0 C -0,4 C 92 % 1011,2 hPa 0,0 l/m 0,0 km/h (0 Bft) O-NO 67 -1,1 C 0,0 km/h (0 Bft)
24.03.2015 00:55 -0,3 C -0,7 C 92 % 1011,2 hPa 0,0 l/m 0,0 km/h (0 Bft) O 90 -1,4 C 0,0 km/h (0 Bft)
24.03.2015 01:00 -0,5 C -0,8 C 92 % 1011,2 hPa 0,0 l/m 0,0 km/h (0 Bft) O-NO 67 -1,6 C 0,0 km/h (0 Bft)
24.03.2015 01:05 -0,5 C -0,9 C 92 % 1011,2 hPa 0,0 l/m 0,0 km/h (0 Bft) O-NO 67 -1,6 C 0,0 km/h (0 Bft)
24.03.2015 01:10 -0,5 C -1,0 C 92 % 1011,2 hPa 0,0 l/m 0,0 km/h (0 Bft) O-NO 67 -1,6 C 0,0 km/h (0 Bft)
24.03.2015 01:15 -0,5 C -1,0 C 92 % 1011,2 hPa 0,0 l/m 0,0 km/h (0 Bft) O 90 -1,6 C 0,0 km/h (0 Bft)
24.03.2015 01:20 -0,3 C -0,8 C 88 % 1011,2 hPa 0,0 l/m 0,0 km/h (0 Bft) O-SO 112 -2,0 C 0,0 km/h (0 Bft)
24.03.2015 01:25 -0,4 C -0,9 C 92 % 1010,9 hPa 0,0 l/m 0,0 km/h (0 Bft) O-NO 67 -1,5 C 0,0 km/h (0 Bft)
24.03.2015 01:30 -0,5 C -0,9 C 92 % 1010,9 hPa 0,0 l/m 0,0 km/h (0 Bft) O-NO 67 -1,6 C 0,0 km/h (0 Bft)
24.03.2015 01:35 -0,8 C -1,2 C 92 % 1010,9 hPa 0,0 l/m 0,0 km/h (0 Bft) O-NO 67 -1,9 C 0,0 km/h (0 Bft)
24.03.2015 01:40 -0,5 C -1,0 C 92 % 1010,9 hPa 0,0 l/m 0,0 km/h (0 Bft) O 90 -1,6 C 0,0 km/h (0 Bft)
24.03.2015 01:45 -1,0 C -1,4 C 92 % 1010,8 hPa 0,0 l/m 0,0 km/h (0 Bft) O-NO 67 -2,1 C 0,0 km/h (0 Bft)
24.03.2015 01:50 -0,8 C -1,3 C 92 % 1010,8 hPa 0,0 l/m 0,0 km/h (0 Bft) O-NO 67 -1,9 C 0,0 km/h (0 Bft)
24.03.2015 01:55 -0,9 C -1,4 C 92 % 1010,8 hPa 0,0 l/m 0,0 km/h (0 Bft) O-NO 67 -2,0 C 0,0 km/h (0 Bft)
24.03.2015 02:00 -0,8 C -1,3 C 92 % 1010,8 hPa 0,0 l/m 0,0 km/h (0 Bft) O-NO 67 -1,9 C 0,0 km/h (0 Bft)
24.03.2015 02:05 -1,0 C -1,5 C 92 % 1010,6 hPa 0,0 l/m 0,0 km/h (0 Bft) O 90 -2,1 C 0,0 km/h (0 Bft)
24.03.2015 02:10 -1,0 C -1,5 C 92 % 1010,6 hPa 0,0 l/m 0,0 km/h (0 Bft) O 90 -2,1 C 0,0 km/h (0 Bft)
24.03.2015 02:15 -1,0 C -1,4 C 88 % 1010,6 hPa 0,0 l/m 0,0 km/h (0 Bft) O-SO 112 -2,7 C 0,0 km/h (0 Bft)
24.03.2015 02:20 -1,0 C -1,3 C 88 % 1010,6 hPa 0,0 l/m 0,0 km/h (0 Bft) O-NO 67 -2,7 C 0,0 km/h (0 Bft)
24.03.2015 02:25 -1,1 C -1,5 C 92 % 1010,7 hPa 0,0 l/m 0,0 km/h (0 Bft) SO 135 -2,2 C 0,0 km/h (0 Bft)
24.03.2015 02:30 -1,1 C -1,5 C 92 % 1010,7 hPa 0,0 l/m 0,0 km/h (0 Bft) SO 135 -2,2 C 0,0 km/h (0 Bft)
24.03.2015 02:35 -1,1 C -1,5 C 92 % 1010,7 hPa 0,0 l/m 0,0 km/h (0 Bft) SO 135 -2,2 C 0,0 km/h (0 Bft)
24.03.2015 02:40 -1,0 C -1,3 C 92 % 1010,7 hPa 0,0 l/m 0,0 km/h (0 Bft) O-SO 112 -2,1 C 0,0 km/h (0 Bft)
24.03.2015 02:45 -1,0 C -1,2 C 92 % 1010,5 hPa 0,0 l/m 0,0 km/h (0 Bft) NW 315 -2,1 C 0,0 km/h (0 Bft)
24.03.2015 02:50 -0,9 C -1,1 C 92 % 1010,5 hPa 0,0 l/m 0,0 km/h (0 Bft) O-SO 112 -2,0 C 0,0 km/h (0 Bft)
24.03.2015 02:55 -0,8 C -1,0 C 92 % 1010,5 hPa 0,0 l/m 0,0 km/h (0 Bft) O 90 -1,9 C 0,0 km/h (0 Bft)
24.03.2015 03:00 -0,6 C -0,7 C 88 % 1010,5 hPa 0,0 l/m 0,0 km/h (0 Bft) O-NO 67 -2,3 C 0,0 km/h (0 Bft)
24.03.2015 03:05 -0,4 C -0,6 C 92 % 1010,4 hPa 0,0 l/m 0,0 km/h (0 Bft) O-NO 67 -1,5 C 0,0 km/h (0 Bft)
24.03.2015 03:10 -0,2 C -0,2 C 88 % 1010,4 hPa 0,0 l/m 0,0 km/h (0 Bft) O-NO 67 -1,9 C 0,0 km/h (0 Bft)
24.03.2015 03:15 -0,1 C -0,3 C 92 % 1010,4 hPa 0,0 l/m 0,0 km/h (0 Bft) O-SO 112 -1,2 C 0,0 km/h (0 Bft)
24.03.2015 03:20 0,1 C -0,2 C 93 % 1010,4 hPa 0,0 l/m 0,0 km/h (0 Bft) O-NO 67 -0,9 C 0,0 km/h (0 Bft)
24.03.2015 03:25 -0,3 C -0,5 C 93 % 1010,4 hPa 0,0 l/m 0,0 km/h (0 Bft) NW 315 -1,3 C 0,0 km/h (0 Bft)
24.03.2015 03:30 -0,4 C -0,6 C 93 % 1010,4 hPa 0,0 l/m 0,0 km/h (0 Bft) N 360 -1,4 C 0,0 km/h (0 Bft)
24.03.2015 03:35 -0,5 C -0,8 C 93 % 1010,4 hPa 0,0 l/m 0,0 km/h (0 Bft) O-NO 67 -1,5 C 0,0 km/h (0 Bft)
24.03.2015 03:40 -0,8 C -1,1 C 92 % 1010,4 hPa 0,0 l/m 0,0 km/h (0 Bft) O-NO 67 -1,9 C 0,0 km/h (0 Bft)
24.03.2015 03:45 -1,0 C -1,3 C 92 % 1010,3 hPa 0,0 l/m 0,0 km/h (0 Bft) O-NO 67 -2,1 C 0,0 km/h (0 Bft)
24.03.2015 03:50 -0,9 C -1,4 C 92 % 1010,3 hPa 0,0 l/m 0,0 km/h (0 Bft) O-NO 67 -2,0 C 0,0 km/h (0 Bft)
24.03.2015 03:55 -0,8 C -1,3 C 92 % 1010,3 hPa 0,0 l/m 0,0 km/h (0 Bft) O-NO 67 -1,9 C 0,0 km/h (0 Bft)
24.03.2015 04:00 -1,0 C -1,4 C 92 % 1010,3 hPa 0,0 l/m 0,0 km/h (0 Bft) O-NO 67 -2,1 C 0,0 km/h (0 Bft)
24.03.2015 04:05 -1,0 C -1,4 C 92 % 1010,4 hPa 0,0 l/m 0,0 km/h (0 Bft) O-NO 67 -2,1 C 0,0 km/h (0 Bft)
24.03.2015 04:10 -1,1 C -1,5 C 92 % 1010,4 hPa 0,0 l/m 0,0 km/h (0 Bft) O 90 -2,2 C 0,0 km/h (0 Bft)
24.03.2015 04:15 -0,8 C -1,3 C 92 % 1010,4 hPa 0,0 l/m 0,0 km/h (0 Bft) O-SO 112 -1,9 C 0,0 km/h (0 Bft)
24.03.2015 04:20 -0,6 C -1,2 C 93 % 1010,4 hPa 0,0 l/m 0,0 km/h (0 Bft) O-SO 112 -1,6 C 0,0 km/h (0 Bft)
24.03.2015 04:25 -0,8 C -1,3 C 93 % 1010,2 hPa 0,0 l/m 0,0 km/h (0 Bft) O-SO 112 -1,8 C 0,0 km/h (0 Bft)
24.03.2015 04:30 -0,9 C -1,4 C 93 % 1010,2 hPa 0,0 l/m 0,0 km/h (0 Bft) NW 315 -1,9 C 0,0 km/h (0 Bft)
24.03.2015 04:35 -1,0 C -1,4 C 92 % 1010,2 hPa 0,0 l/m 0,0 km/h (0 Bft) NW 315 -2,1 C 0,0 km/h (0 Bft)
24.03.2015 04:40 -1,3 C -1,6 C 92 % 1010,2 hPa 0,0 l/m 0,0 km/h (0 Bft) NW 315 -2,4 C 0,0 km/h (0 Bft)
24.03.2015 04:45 -1,5 C -1,8 C 92 % 1010,2 hPa 0,0 l/m 0,0 km/h (0 Bft) N-NO 22 -2,6 C 0,0 km/h (0 Bft)
24.03.2015 04:50 -1,2 C -1,6 C 92 % 1010,2 hPa 0,0 l/m 0,0 km/h (0 Bft) W-SW 247 -2,3 C 0,0 km/h (0 Bft)
24.03.2015 04:55 -0,8 C -1,3 C 93 % 1010,2 hPa 0,0 l/m 0,0 km/h (0 Bft) O-NO 67 -1,8 C 0,0 km/h (0 Bft)
24.03.2015 05:00 -1,0 C -1,4 C 93 % 1010,2 hPa 0,0 l/m 0,0 km/h (0 Bft) O-NO 67 -2,0 C 0,0 km/h (0 Bft)
24.03.2015 05:05 -1,1 C -1,5 C 92 % 1010,2 hPa 0,0 l/m 0,0 km/h (0 Bft) NO 45 -2,2 C 0,0 km/h (0 Bft)
24.03.2015 05:10 -1,5 C -1,8 C 92 % 1010,2 hPa 0,0 l/m 0,0 km/h (0 Bft) O-SO 112 -2,6 C 0,0 km/h (0 Bft)
24.03.2015 05:15 -1,3 C -1,7 C 92 % 1010,2 hPa 0,0 l/m 0,0 km/h (0 Bft) O 90 -2,4 C 0,0 km/h (0 Bft)
24.03.2015 05:20 -1,4 C -1,8 C 92 % 1010,2 hPa 0,0 l/m 0,0 km/h (0 Bft) NW 315 -2,5 C 0,0 km/h (0 Bft)
24.03.2015 05:25 -1,3 C -1,7 C 92 % 1010,1 hPa 0,0 l/m 0,0 km/h (0 Bft) NW 315 -2,4 C 0,0 km/h (0 Bft)
24.03.2015 05:30 -1,6 C -2,0 C 92 % 1010,1 hPa 0,0 l/m 0,0 km/h (0 Bft) NW 315 -2,7 C 0,0 km/h (0 Bft)
24.03.2015 05:35 -1,7 C -2,0 C 92 % 1010,1 hPa 0,0 l/m 0,0 km/h (0 Bft) N-NW 337 -2,8 C 0,0 km/h (0 Bft)
24.03.2015 05:40 -1,8 C -2,1 C 92 % 1010,1 hPa 0,0 l/m 0,0 km/h (0 Bft) N-NW 337 -2,9 C 0,0 km/h (0 Bft)
24.03.2015 05:45 -1,4 C -1,9 C 92 % 1010,2 hPa 0,0 l/m 0,0 km/h (0 Bft) N-NW 337 -2,5 C 0,0 km/h (0 Bft)
24.03.2015 05:50 -1,6 C -2,0 C 92 % 1010,2 hPa 0,0 l/m 0,0 km/h (0 Bft) N-NW 337 -2,7 C 0,0 km/h (0 Bft)
24.03.2015 05:55 -1,4 C -1,8 C 93 % 1010,2 hPa 0,0 l/m 0,0 km/h (0 Bft) NO 45 -2,4 C 0,0 km/h (0 Bft)
24.03.2015 06:00 -1,6 C -1,9 C 92 % 1010,2 hPa 0,0 l/m 0,0 km/h (0 Bft) NO 45 -2,7 C 0,0 km/h (0 Bft)
24.03.2015 06:05 -1,6 C -1,9 C 92 % 1010,2 hPa 0,0 l/m 0,0 km/h (0 Bft) NO 45 -2,7 C 0,0 km/h (0 Bft)
24.03.2015 06:10 -1,6 C -2,0 C 92 % 1010,2 hPa 0,0 l/m 0,0 km/h (0 Bft) NO 45 -2,7 C 0,0 km/h (0 Bft)
24.03.2015 06:15 -1,6 C -2,0 C 92 % 1010,2 hPa 0,0 l/m 0,0 km/h (0 Bft) NO 45 -2,7 C 0,0 km/h (0 Bft)
24.03.2015 06:20 -1,5 C -1,9 C 93 % 1010,2 hPa 0,0 l/m 0,0 km/h (0 Bft) NO 45 -2,5 C 0,0 km/h (0 Bft)
24.03.2015 06:25 -1,7 C -2,0 C 92 % 1010,4 hPa 0,0 l/m 0,0 km/h (0 Bft) NO 45 -2,8 C 0,0 km/h (0 Bft)
24.03.2015 06:30 -1,3 C -1,6 C 88 % 1010,4 hPa 0,0 l/m 0,0 km/h (0 Bft) NO 45 -3,0 C 0,0 km/h (0 Bft)
24.03.2015 06:35 -1,4 C -1,7 C 93 % 1010,4 hPa 0,0 l/m 0,0 km/h (0 Bft) N-NO 22 -2,4 C 0,0 km/h (0 Bft)
24.03.2015 06:40 -1,6 C -1,8 C 93 % 1010,4 hPa 0,0 l/m 0,0 km/h (0 Bft) N-NO 22 -2,6 C 0,0 km/h (0 Bft)
24.03.2015 06:45 -1,5 C -1,8 C 93 % 1010,3 hPa 0,0 l/m 0,0 km/h (0 Bft) N-NO 22 -2,5 C 0,0 km/h (0 Bft)
24.03.2015 06:50 -1,4 C -1,7 C 93 % 1010,3 hPa 0,0 l/m 0,0 km/h (0 Bft) N-NO 22 -2,4 C 0,0 km/h (0 Bft)
24.03.2015 06:55 -1,3 C -1,5 C 88 % 1010,3 hPa 0,0 l/m 0,0 km/h (0 Bft) N-NO 22 -3,0 C 0,0 km/h (0 Bft)
24.03.2015 07:00 -1,4 C -1,6 C 93 % 1010,3 hPa 0,0 l/m 0,0 km/h (0 Bft) N-NO 22 -2,4 C 0,0 km/h (0 Bft)
24.03.2015 07:05 -1,0 C -1,1 C 93 % 1010,4 hPa 0,0 l/m 0,0 km/h (0 Bft) N-NO 22 -2,0 C 0,0 km/h (0 Bft)
24.03.2015 07:10 -1,1 C -1,1 C 93 % 1010,4 hPa 0,0 l/m 0,0 km/h (0 Bft) N-NO 22 -2,1 C 0,0 km/h (0 Bft)
24.03.2015 07:15 -0,9 C -0,9 C 93 % 1010,4 hPa 0,0 l/m 0,0 km/h (0 Bft) N-NO 22 -1,9 C 0,0 km/h (0 Bft)
24.03.2015 07:20 -0,8 C -0,8 C 93 % 1010,4 hPa 0,0 l/m 0,0 km/h (0 Bft) N-NO 22 -1,8 C 0,0 km/h (0 Bft)
24.03.2015 07:25 -0,5 C -0,4 C 93 % 1010,3 hPa 0,0 l/m 0,0 km/h (0 Bft) N-NO 22 -1,5 C 0,0 km/h (0 Bft)
24.03.2015 07:30 -0,5 C 0,0 C 93 % 1010,3 hPa 0,0 l/m 0,0 km/h (0 Bft) N-NO 22 -1,5 C 0,0 km/h (0 Bft)
24.03.2015 07:35 -0,3 C 0,3 C 88 % 1010,3 hPa 0,0 l/m 0,0 km/h (0 Bft) N-NO 22 -2,0 C 0,0 km/h (0 Bft)
24.03.2015 07:40 -0,2 C 0,6 C 89 % 1010,3 hPa 0,0 l/m 0,0 km/h (0 Bft) S-SO 157 -1,8 C 0,0 km/h (0 Bft)
24.03.2015 07:45 0,0 C 2,0 C 89 % 1010,4 hPa 0,0 l/m 0,0 km/h (0 Bft) S-SO 157 -1,6 C 0,0 km/h (0 Bft)
24.03.2015 07:50 0,2 C 3,1 C 89 % 1010,4 hPa 0,0 l/m 0,0 km/h (0 Bft) S-SO 157 -1,4 C 0,0 km/h (0 Bft)
24.03.2015 07:55 0,3 C 4,2 C 89 % 1010,4 hPa 0,0 l/m 0,0 km/h (0 Bft) S-SO 157 -1,3 C 0,0 km/h (0 Bft)
24.03.2015 08:00 0,4 C 3,8 C 89 % 1010,4 hPa 0,0 l/m 0,0 km/h (0 Bft) S-SO 157 -1,2 C 0,0 km/h (0 Bft)
24.03.2015 08:05 0,7 C 3,3 C 89 % 1010,2 hPa 0,0 l/m 0,0 km/h (0 Bft) S-SO 157 -0,9 C 0,0 km/h (0 Bft)
24.03.2015 08:10 0,7 C 3,3 C 89 % 1010,2 hPa 0,0 l/m 0,0 km/h (0 Bft) S-SO 157 -0,9 C 0,0 km/h (0 Bft)
24.03.2015 08:15 1,0 C 3,8 C 89 % 1010,2 hPa 0,0 l/m 0,0 km/h (0 Bft) S-SO 157 -0,6 C 0,0 km/h (0 Bft)
24.03.2015 08:20 1,5 C 5,0 C 89 % 1010,2 hPa 0,0 l/m 0,0 km/h (0 Bft) S-SO 157 -0,1 C 0,0 km/h (0 Bft)
24.03.2015 08:25 2,3 C 8,8 C 89 % 1010,3 hPa 0,0 l/m 0,0 km/h (0 Bft) S-SO 157 0,7 C 0,0 km/h (0 Bft)
24.03.2015 08:30 3,1 C 11,2 C 88 % 1010,3 hPa 0,0 l/m 0,0 km/h (0 Bft) SO 135 1,3 C 0,0 km/h (0 Bft)
24.03.2015 08:35 3,5 C 13,6 C 88 % 1010,3 hPa 0,0 l/m 0,0 km/h (0 Bft) O-SO 112 1,7 C 0,0 km/h (0 Bft)
24.03.2015 08:40 3,8 C 14,6 C 88 % 1010,3 hPa 0,0 l/m 0,0 km/h (0 Bft) SO 135 2,0 C 0,0 km/h (0 Bft)
24.03.2015 08:45 4,5 C 15,7 C 88 % 1010,8 hPa 0,0 l/m 0,0 km/h (0 Bft) SO 135 2,7 C 0,0 km/h (0 Bft)
24.03.2015 08:50 4,7 C 15,4 C 88 % 1010,8 hPa 0,0 l/m 0,0 km/h (0 Bft) SO 135 2,9 C 0,0 km/h (0 Bft)
24.03.2015 08:55 5,2 C 15,3 C 87 % 1010,8 hPa 0,0 l/m 0,0 km/h (0 Bft) SW 225 3,2 C 0,0 km/h (0 Bft)
24.03.2015 09:00 5,4 C 15,9 C 87 % 1010,8 hPa 0,0 l/m 0,0 km/h (0 Bft) O-SO 112 3,4 C 0,0 km/h (0 Bft)
24.03.2015 09:05 5,9 C 15,9 C 87 % 1011,0 hPa 0,0 l/m 0,0 km/h (0 Bft) O-NO 67 3,9 C 0,0 km/h (0 Bft)
24.03.2015 09:10 6,5 C 16,2 C 86 % 1011,0 hPa 0,0 l/m 0,0 km/h (0 Bft) NO 45 4,3 C 0,0 km/h (0 Bft)
24.03.2015 09:15 7,1 C 17,0 C 85 % 1011,0 hPa 0,0 l/m 0,0 km/h (0 Bft) O-SO 112 4,8 C 0,0 km/h (0 Bft)
24.03.2015 09:20 7,4 C 16,9 C 84 % 1011,0 hPa 0,0 l/m 0,0 km/h (0 Bft) O 90 4,9 C 0,0 km/h (0 Bft)
24.03.2015 09:25 7,9 C 17,6 C 83 % 1011,0 hPa 0,0 l/m 0,0 km/h (0 Bft) O-SO 112 5,2 C 0,0 km/h (0 Bft)
24.03.2015 09:30 7,9 C 17,9 C 82 % 1011,0 hPa 0,0 l/m 0,0 km/h (0 Bft) NO 45 5,0 C 0,0 km/h (0 Bft)
24.03.2015 09:35 8,9 C 18,8 C 81 % 1011,0 hPa 0,0 l/m 0,0 km/h (0 Bft) O-NO 67 5,8 C 0,0 km/h (0 Bft)
24.03.2015 09:40 9,4 C 19,8 C 80 % 1011,0 hPa 0,0 l/m 0,0 km/h (0 Bft) O-NO 67 6,1 C 0,0 km/h (0 Bft)
24.03.2015 09:45 9,6 C 20,6 C 78 % 1011,2 hPa 0,0 l/m 0,0 km/h (0 Bft) N-NW 337 6,0 C 0,0 km/h (0 Bft)
24.03.2015 09:50 10,2 C 20,2 C 77 % 1011,2 hPa 0,0 l/m 0,2 km/h (0 Bft) W-NW 292 6,4 C 0,0 km/h (0 Bft)
24.03.2015 09:55 10,6 C 20,2 C 74 % 1011,2 hPa 0,0 l/m 0,2 km/h (0 Bft) NO 45 6,2 C 3,1 km/h (1 Bft)
24.03.2015 10:00 11,0 C 19,9 C 73 % 1011,2 hPa 0,0 l/m 0,3 km/h (0 Bft) N-NW 337 6,4 C 0,0 km/h (0 Bft)
24.03.2015 10:05 11,1 C 20,0 C 70 % 1011,2 hPa 0,0 l/m 0,6 km/h (0 Bft) O-NO 67 5,8 C 1,9 km/h (1 Bft)
24.03.2015 10:10 10,8 C 20,0 C 67 % 1011,2 hPa 0,0 l/m 0,5 km/h (0 Bft) SO 135 4,9 C 0,0 km/h (0 Bft)
24.03.2015 10:15 10,9 C 20,4 C 66 % 1011,2 hPa 0,0 l/m 0,2 km/h (0 Bft) S 180 4,8 C 0,0 km/h (0 Bft)
24.03.2015 10:20 11,0 C 19,8 C 65 % 1011,2 hPa 0,0 l/m 0,3 km/h (0 Bft) O-NO 67 4,7 C 2,9 km/h (1 Bft)
24.03.2015 10:25 11,2 C 18,5 C 63 % 1011,5 hPa 0,0 l/m 0,6 km/h (0 Bft) SO 135 4,4 C 0,0 km/h (0 Bft)
24.03.2015 10:30 11,5 C 19,0 C 62 % 1011,5 hPa 0,0 l/m 1,0 km/h (0 Bft) O 90 4,5 C 1,9 km/h (1 Bft)
24.03.2015 10:35 12,4 C 20,4 C 59 % 1011,5 hPa 0,0 l/m 1,0 km/h (0 Bft) N-NO 22 4,6 C 3,7 km/h (1 Bft)
24.03.2015 10:40 12,2 C 19,7 C 58 % 1011,5 hPa 0,0 l/m 1,6 km/h (1 Bft) O-NO 67 4,2 C 3,2 km/h (1 Bft)
24.03.2015 10:45 11,9 C 18,8 C 58 % 1011,4 hPa 0,0 l/m 2,3 km/h (1 Bft) NO 45 3,9 C 5,1 km/h (1 Bft)
24.03.2015 10:50 11,9 C 18,8 C 58 % 1011,4 hPa 0,0 l/m 2,7 km/h (1 Bft) N-NW 337 3,9 C 3,5 km/h (1 Bft)
24.03.2015 10:55 11,3 C 15,8 C 58 % 1011,4 hPa 0,0 l/m 3,9 km/h (1 Bft) W-NW 292 3,3 C 7,4 km/h (2 Bft)
24.03.2015 11:00 11,2 C 15,1 C 58 % 1011,4 hPa 0,0 l/m 3,9 km/h (1 Bft) NW 315 3,2 C 3,7 km/h (1 Bft)
24.03.2015 11:05 11,1 C 14,4 C 58 % 1011,3 hPa 0,0 l/m 3,4 km/h (1 Bft) NW 315 3,2 C 3,2 km/h (1 Bft)
24.03.2015 11:10 11,1 C 13,9 C 58 % 1011,3 hPa 0,0 l/m 2,7 km/h (1 Bft) NW 315 3,2 C 2,4 km/h (1 Bft)
24.03.2015 11:15 11,1 C 13,7 C 58 % 1011,3 hPa 0,0 l/m 2,3 km/h (1 Bft) NW 315 3,2 C 0,0 km/h (0 Bft)
24.03.2015 11:20 11,2 C 14,1 C 57 % 1011,3 hPa 0,0 l/m 1,9 km/h (1 Bft) NW 315 3,0 C 2,1 km/h (1 Bft)
24.03.2015 11:25 11,1 C 14,4 C 58 % 1010,9 hPa 0,0 l/m 0,8 km/h (0 Bft) NW 315 3,2 C 0,0 km/h (0 Bft)
24.03.2015 11:30 11,1 C 14,5 C 57 % 1010,9 hPa 0,0 l/m 0,5 km/h (0 Bft) N-NO 22 2,9 C 1,6 km/h (1 Bft)
24.03.2015 11:35 11,2 C 14,6 C 57 % 1010,9 hPa 0,0 l/m 0,5 km/h (0 Bft) O-NO 67 3,0 C 2,3 km/h (1 Bft)
24.03.2015 11:40 11,2 C 14,6 C 57 % 1010,9 hPa 0,0 l/m 0,6 km/h (0 Bft) W-NW 292 3,0 C 2,1 km/h (1 Bft)
24.03.2015 11:45 11,6 C 15,2 C 57 % 1010,6 hPa 0,0 l/m 1,0 km/h (0 Bft) W 270 3,4 C 0,0 km/h (0 Bft)
24.03.2015 11:50 11,9 C 16,2 C 57 % 1010,6 hPa 0,0 l/m 1,3 km/h (1 Bft) N-NW 337 3,7 C 2,9 km/h (1 Bft)
24.03.2015 11:55 12,0 C 16,5 C 56 % 1010,6 hPa 0,0 l/m 1,1 km/h (1 Bft) N-NW 337 3,5 C 1,8 km/h (1 Bft)
24.03.2015 12:00 12,3 C 17,3 C 55 % 1010,6 hPa 0,0 l/m 1,4 km/h (1 Bft) O-NO 67 3,5 C 2,7 km/h (1 Bft)
24.03.2015 12:05 12,2 C 17,6 C 55 % 1010,3 hPa 0,0 l/m 1,9 km/h (1 Bft) O 90 3,4 C 2,4 km/h (1 Bft)
24.03.2015 12:10 12,2 C 17,5 C 54 % 1010,3 hPa 0,0 l/m 1,9 km/h (1 Bft) SO 135 3,2 C 0,0 km/h (0 Bft)
24.03.2015 12:15 12,7 C 18,5 C 54 % 1010,3 hPa 0,0 l/m 1,0 km/h (0 Bft) NO 45 3,6 C 0,0 km/h (0 Bft)
24.03.2015 12:20 13,2 C 19,2 C 54 % 1010,3 hPa 0,0 l/m 0,2 km/h (0 Bft) NW 315 4,1 C 0,0 km/h (0 Bft)
24.03.2015 12:25 13,4 C 19,0 C 51 % 1010,3 hPa 0,0 l/m 0,6 km/h (0 Bft) S 180 3,5 C 1,8 km/h (1 Bft)
24.03.2015 12:30 13,7 C 18,5 C 52 % 1010,3 hPa 0,0 l/m 0,5 km/h (0 Bft) SW 225 4,0 C 0,0 km/h (0 Bft)
24.03.2015 12:35 13,7 C 17,7 C 51 % 1010,3 hPa 0,0 l/m 1,1 km/h (1 Bft) N-NO 22 3,8 C 0,0 km/h (0 Bft)
24.03.2015 12:40 13,9 C 17,6 C 51 % 1010,3 hPa 0,0 l/m 2,1 km/h (1 Bft) N 360 3,9 C 3,5 km/h (1 Bft)
24.03.2015 12:45 13,7 C 17,6 C 49 % 1010,3 hPa 0,0 l/m 3,1 km/h (1 Bft) NW 315 3,2 C 3,1 km/h (1 Bft)
24.03.2015 12:50 13,9 C 18,2 C 49 % 1010,3 hPa 0,0 l/m 2,9 km/h (1 Bft) NW 315 3,4 C 4,8 km/h (1 Bft)
24.03.2015 12:55 13,8 C 18,6 C 49 % 1010,3 hPa 0,0 l/m 2,4 km/h (1 Bft) NW 315 3,3 C 1,9 km/h (1 Bft)
24.03.2015 13:00 14,1 C 19,3 C 48 % 1010,3 hPa 0,0 l/m 1,8 km/h (1 Bft) O-SO 112 3,3 C 0,0 km/h (0 Bft)
24.03.2015 13:05 14,5 C 20,3 C 48 % 1010,2 hPa 0,0 l/m 0,6 km/h (0 Bft) W 270 3,6 C 2,1 km/h (1 Bft)
24.03.2015 13:10 14,7 C 20,8 C 48 % 1010,2 hPa 0,0 l/m 0,6 km/h (0 Bft) O-NO 67 3,8 C 0,0 km/h (0 Bft)
24.03.2015 13:15 15,2 C 21,4 C 48 % 1010,2 hPa 0,0 l/m 0,5 km/h (0 Bft) NW 315 4,3 C 0,0 km/h (0 Bft)
24.03.2015 13:20 15,2 C 21,2 C 47 % 1010,2 hPa 0,0 l/m 2,1 km/h (1 Bft) NW 315 4,0 C 9,8 km/h (2 Bft)
24.03.2015 13:25 15,1 C 20,7 C 47 % 1010,3 hPa 0,0 l/m 2,7 km/h (1 Bft) NW 315 3,9 C 10,8 km/h (2 Bft)
24.03.2015 13:30 14,9 C 20,7 C 47 % 1010,3 hPa 0,0 l/m 3,1 km/h (1 Bft) O-NO 67 3,7 C 3,7 km/h (1 Bft)
24.03.2015 13:35 14,2 C 19,7 C 46 % 1010,3 hPa 0,0 l/m 2,6 km/h (1 Bft) O-NO 67 2,8 C 3,7 km/h (1 Bft)
24.03.2015 13:40 14,2 C 19,3 C 46 % 1010,3 hPa 0,0 l/m 3,2 km/h (1 Bft) O-NO 67 2,8 C 4,2 km/h (1 Bft)
24.03.2015 13:45 14,0 C 18,7 C 47 % 1010,2 hPa 0,0 l/m 2,7 km/h (1 Bft) N-NO 22 2,9 C 2,1 km/h (1 Bft)
24.03.2015 13:50 13,6 C 18,1 C 46 % 1010,2 hPa 0,0 l/m 2,9 km/h (1 Bft) O 90 2,2 C 3,4 km/h (1 Bft)
24.03.2015 13:55 13,5 C 17,3 C 47 % 1010,2 hPa 0,0 l/m 2,1 km/h (1 Bft) W-NW 292 2,4 C 3,2 km/h (1 Bft)
24.03.2015 14:00 13,6 C 16,9 C 47 % 1010,2 hPa 0,0 l/m 2,3 km/h (1 Bft) W-SW 247 2,5 C 2,6 km/h (1 Bft)
24.03.2015 14:05 13,7 C 16,9 C 46 % 1009,8 hPa 0,0 l/m 2,7 km/h (1 Bft) O-SO 112 2,3 C 2,9 km/h (1 Bft)
24.03.2015 14:10 13,6 C 17,1 C 45 % 1009,8 hPa 0,0 l/m 2,1 km/h (1 Bft) SW 225 1,9 C 4,7 km/h (1 Bft)
24.03.2015 14:15 13,8 C 17,7 C 46 % 1009,8 hPa 0,0 l/m 1,8 km/h (1 Bft) O-NO 67 2,4 C 3,9 km/h (1 Bft)
24.03.2015 14:20 14,1 C 18,4 C 45 % 1009,8 hPa 0,0 l/m 2,3 km/h (1 Bft) O-NO 67 2,4 C 1,9 km/h (1 Bft)
24.03.2015 14:25 14,6 C 19,6 C 45 % 1009,6 hPa 0,0 l/m 2,1 km/h (1 Bft) SO 135 2,8 C 2,1 km/h (1 Bft)
24.03.2015 14:30 14,7 C 20,1 C 45 % 1009,6 hPa 0,0 l/m 1,8 km/h (1 Bft) O-NO 67 2,9 C 2,7 km/h (1 Bft)
24.03.2015 14:35 14,6 C 19,9 C 44 % 1009,6 hPa 0,0 l/m 1,6 km/h (1 Bft) S-SO 157 2,5 C 0,0 km/h (0 Bft)
24.03.2015 14:40 14,9 C 20,1 C 44 % 1009,6 hPa 0,0 l/m 2,1 km/h (1 Bft) N-NW 337 2,8 C 5,1 km/h (1 Bft)
24.03.2015 14:45 15,0 C 20,3 C 44 % 1009,4 hPa 0,0 l/m 2,3 km/h (1 Bft) W 270 2,9 C 0,0 km/h (0 Bft)
24.03.2015 14:50 15,0 C 20,1 C 45 % 1009,4 hPa 0,0 l/m 1,6 km/h (1 Bft) SW 225 3,2 C 0,0 km/h (0 Bft)
24.03.2015 14:55 14,8 C 20,3 C 45 % 1009,4 hPa 0,0 l/m 0,6 km/h (0 Bft) O-SO 112 3,0 C 0,0 km/h (0 Bft)
24.03.2015 15:00 14,8 C 20,3 C 45 % 1009,4 hPa 0,0 l/m 1,1 km/h (1 Bft) O-SO 112 3,0 C 1,9 km/h (1 Bft)
24.03.2015 15:05 14,1 C 18,7 C 44 % 1009,1 hPa 0,0 l/m 2,6 km/h (1 Bft) O-SO 112 2,0 C 0,0 km/h (0 Bft)
24.03.2015 15:10 14,1 C 18,3 C 44 % 1009,1 hPa 0,0 l/m 2,9 km/h (1 Bft) SO 135 2,0 C 2,1 km/h (1 Bft)
24.03.2015 15:15 14,2 C 17,8 C 45 % 1009,1 hPa 0,0 l/m 0,6 km/h (0 Bft) N 360 2,4 C 0,0 km/h (0 Bft)
24.03.2015 15:20 14,1 C 17,2 C 46 % 1009,1 hPa 0,0 l/m 0,5 km/h (0 Bft) W-NW 292 2,7 C 0,0 km/h (0 Bft)
24.03.2015 15:25 13,8 C 17,2 C 47 % 1009,1 hPa 0,0 l/m 0,6 km/h (0 Bft) O-SO 112 2,7 C 0,0 km/h (0 Bft)
24.03.2015 15:30 13,7 C 17,2 C 47 % 1009,1 hPa 0,0 l/m 0,8 km/h (0 Bft) NO 45 2,6 C 3,7 km/h (1 Bft)
24.03.2015 15:35 13,6 C 16,3 C 46 % 1009,1 hPa 0,0 l/m 2,9 km/h (1 Bft) O-NO 67 2,2 C 3,7 km/h (1 Bft)
24.03.2015 15:40 13,5 C 16,0 C 47 % 1009,1 hPa 0,0 l/m 2,7 km/h (1 Bft) O-NO 67 2,4 C 2,6 km/h (1 Bft)
24.03.2015 15:45 13,4 C 15,8 C 47 % 1008,9 hPa 0,0 l/m 2,6 km/h (1 Bft) O-SO 112 2,3 C 2,6 km/h (1 Bft)
24.03.2015 15:50 13,3 C 15,4 C 47 % 1008,9 hPa 0,0 l/m 2,7 km/h (1 Bft) O 90 2,2 C 0,0 km/h (0 Bft)
24.03.2015 15:55 13,3 C 15,2 C 47 % 1008,9 hPa 0,0 l/m 1,1 km/h (1 Bft) O-SO 112 2,2 C 0,0 km/h (0 Bft)
24.03.2015 16:00 13,2 C 15,2 C 48 % 1008,9 hPa 0,0 l/m 0,3 km/h (0 Bft) O-NO 67 2,4 C 2,6 km/h (1 Bft)
24.03.2015 16:05 13,4 C 15,4 C 48 % 1008,8 hPa 0,0 l/m 0,8 km/h (0 Bft) NO 45 2,6 C 2,9 km/h (1 Bft)
24.03.2015 16:10 13,4 C 15,6 C 48 % 1008,8 hPa 0,0 l/m 1,3 km/h (1 Bft) N-NO 22 2,6 C 3,5 km/h (1 Bft)
24.03.2015 16:15 13,2 C 15,0 C 48 % 1008,8 hPa 0,0 l/m 2,6 km/h (1 Bft) O-NO 67 2,4 C 4,8 km/h (1 Bft)
24.03.2015 16:20 13,2 C 14,7 C 47 % 1008,8 hPa 0,0 l/m 3,5 km/h (1 Bft) NO 45 2,1 C 5,8 km/h (2 Bft)
24.03.2015 16:25 13,1 C 14,5 C 48 % 1008,4 hPa 0,0 l/m 3,5 km/h (1 Bft) NO 45 2,3 C 4,7 km/h (1 Bft)
24.03.2015 16:30 13,1 C 14,4 C 48 % 1008,4 hPa 0,0 l/m 2,6 km/h (1 Bft) NO 45 2,3 C 0,0 km/h (0 Bft)
24.03.2015 16:35 12,7 C 14,0 C 49 % 1008,4 hPa 0,0 l/m 2,3 km/h (1 Bft) NO 45 2,3 C 3,2 km/h (1 Bft)
24.03.2015 16:40 12,3 C 13,4 C 49 % 1008,4 hPa 0,0 l/m 1,6 km/h (1 Bft) S-SO 157 1,9 C 0,0 km/h (0 Bft)
24.03.2015 16:45 12,1 C 13,0 C 49 % 1008,3 hPa 0,0 l/m 0,6 km/h (0 Bft) O-NO 67 1,7 C 0,0 km/h (0 Bft)
24.03.2015 16:50 12,0 C 12,8 C 50 % 1008,3 hPa 0,0 l/m 0,2 km/h (0 Bft) O-SO 112 1,9 C 0,0 km/h (0 Bft)
24.03.2015 16:55 11,9 C 12,7 C 51 % 1008,3 hPa 0,0 l/m 0,0 km/h (0 Bft) O-SO 112 2,1 C 0,0 km/h (0 Bft)
24.03.2015 17:00 11,9 C 12,7 C 51 % 1008,3 hPa 0,0 l/m 0,0 km/h (0 Bft) SO 135 2,1 C 0,0 km/h (0 Bft)
24.03.2015 17:05 12,0 C 12,8 C 51 % 1008,2 hPa 0,0 l/m 0,0 km/h (0 Bft) O-SO 112 2,2 C 0,0 km/h (0 Bft)
24.03.2015 17:10 11,9 C 13,0 C 51 % 1008,2 hPa 0,0 l/m 0,0 km/h (0 Bft) O 90 2,1 C 0,0 km/h (0 Bft)
24.03.2015 17:15 12,0 C 12,9 C 51 % 1008,2 hPa 0,0 l/m 0,0 km/h (0 Bft) O 90 2,2 C 0,0 km/h (0 Bft)
24.03.2015 17:20 11,8 C 12,8 C 51 % 1008,2 hPa 0,0 l/m 0,0 km/h (0 Bft) O-SO 112 2,0 C 0,0 km/h (0 Bft)
24.03.2015 17:25 11,7 C 12,5 C 52 % 1008,0 hPa 0,0 l/m 0,2 km/h (0 Bft) SO 135 2,2 C 0,0 km/h (0 Bft)
24.03.2015 17:30 11,6 C 12,4 C 52 % 1008,0 hPa 0,0 l/m 0,2 km/h (0 Bft) SO 135 2,1 C 0,0 km/h (0 Bft)
24.03.2015 17:35 11,5 C 12,3 C 52 % 1008,0 hPa 0,0 l/m 0,0 km/h (0 Bft) SO 135 2,0 C 0,0 km/h (0 Bft)
24.03.2015 17:40 11,4 C 12,2 C 53 % 1008,0 hPa 0,0 l/m 0,0 km/h (0 Bft) SO 135 2,2 C 0,0 km/h (0 Bft)
24.03.2015 17:45 11,2 C 11,9 C 53 % 1007,9 hPa 0,0 l/m 0,0 km/h (0 Bft) O-SO 112 2,0 C 0,0 km/h (0 Bft)
24.03.2015 17:47 11,0 C 11,6 C 53 % 1007,9 hPa 0,0 l/m 0,0 km/h (0 Bft) SO 135 1,8 C 0,0 km/h (0 Bft)
24.03.2015 17:52 10,7 C 11,1 C 54 % 1007,9 hPa 0,0 l/m 0,2 km/h (0 Bft) S-SO 157 1,8 C 0,0 km/h (0 Bft)
24.03.2015 17:57 10,5 C 10,8 C 54 % 1007,9 hPa 0,0 l/m 0,2 km/h (0 Bft) S-SO 157 1,6 C 0,0 km/h (0 Bft)
24.03.2015 18:02 10,3 C 10,4 C 55 % 1008,1 hPa 0,0 l/m 0,0 km/h (0 Bft) S-SO 157 1,7 C 0,0 km/h (0 Bft)
24.03.2015 18:07 10,2 C 10,3 C 55 % 1008,1 hPa 0,0 l/m 0,0 km/h (0 Bft) S-SO 157 1,6 C 0,0 km/h (0 Bft)
24.03.2015 18:08 10,2 C 10,3 C 55 % 1008,1 hPa 0,0 l/m 0,0 km/h (0 Bft) S-SO 157 1,6 C 0,0 km/h (0 Bft)
24.03.2015 18:10 10,2 C 10,3 C 55 % 1008,1 hPa 0,0 l/m 0,0 km/h (0 Bft) S-SO 157 1,6 C 0,0 km/h (0 Bft)
24.03.2015 18:15 10,1 C 10,1 C 56 % 1008,1 hPa 0,0 l/m 0,0 km/h (0 Bft) S-SO 157 1,7 C 0,0 km/h (0 Bft)
24.03.2015 18:20 10,0 C 10,0 C 56 % 1008,1 hPa 0,0 l/m 0,0 km/h (0 Bft) S-SO 157 1,6 C 0,0 km/h (0 Bft)
24.03.2015 18:25 9,9 C 9,8 C 56 % 1008,0 hPa 0,0 l/m 0,0 km/h (0 Bft) S-SO 157 1,5 C 0,0 km/h (0 Bft)
24.03.2015 18:30 9,3 C 9,3 C 56 % 1008,0 hPa 0,0 l/m 0,0 km/h (0 Bft) S-SO 157 1,0 C 0,0 km/h (0 Bft)
24.03.2015 18:35 9,2 C 9,1 C 57 % 1008,0 hPa 0,0 l/m 0,0 km/h (0 Bft) S-SO 157 1,1 C 0,0 km/h (0 Bft)
24.03.2015 18:40 9,2 C 9,0 C 57 % 1008,0 hPa 0,0 l/m 0,0 km/h (0 Bft) S 180 1,1 C 0,0 km/h (0 Bft)
24.03.2015 18:45 9,3 C 9,0 C 57 % 1007,9 hPa 0,0 l/m 0,0 km/h (0 Bft) S 180 1,2 C 0,0 km/h (0 Bft)
24.03.2015 18:50 9,3 C 9,0 C 57 % 1007,9 hPa 0,0 l/m 0,0 km/h (0 Bft) S-SO 157 1,2 C 0,0 km/h (0 Bft)
24.03.2015 18:55 8,4 C 8,3 C 58 % 1007,9 hPa 0,0 l/m 0,0 km/h (0 Bft) S 180 0,6 C 0,0 km/h (0 Bft)
24.03.2015 19:00 8,4 C 8,2 C 58 % 1007,9 hPa 0,0 l/m 0,0 km/h (0 Bft) S 180 0,6 C 0,0 km/h (0 Bft)
24.03.2015 19:05 8,0 C 7,7 C 58 % 1008,3 hPa 0,0 l/m 0,0 km/h (0 Bft) S 180 0,3 C 0,0 km/h (0 Bft)
24.03.2015 19:10 8,0 C 7,6 C 58 % 1008,3 hPa 0,0 l/m 0,0 km/h (0 Bft) SO 135 0,3 C 0,0 km/h (0 Bft)
24.03.2015 19:15 7,2 C 6,9 C 58 % 1008,3 hPa 0,0 l/m 0,0 km/h (0 Bft) S 180 -0,5 C 0,0 km/h (0 Bft)
24.03.2015 19:20 6,9 C 6,6 C 59 % 1008,3 hPa 0,0 l/m 0,0 km/h (0 Bft) S 180 -0,5 C 0,0 km/h (0 Bft)
24.03.2015 19:25 6,3 C 6,1 C 59 % 1007,9 hPa 0,0 l/m 0,0 km/h (0 Bft) S 180 -1,1 C 0,0 km/h (0 Bft)
24.03.2015 19:30 6,0 C 5,8 C 60 % 1007,9 hPa 0,0 l/m 0,0 km/h (0 Bft) S 180 -1,2 C 0,0 km/h (0 Bft)
24.03.2015 19:35 5,5 C 5,2 C 61 % 1007,9 hPa 0,0 l/m 0,0 km/h (0 Bft) S 180 -1,4 C 0,0 km/h (0 Bft)
24.03.2015 19:40 5,7 C 5,3 C 64 % 1007,9 hPa 0,0 l/m 0,0 km/h (0 Bft) S 180 -0,6 C 0,0 km/h (0 Bft)
24.03.2015 19:45 6,2 C 5,5 C 65 % 1008,1 hPa 0,0 l/m 0,0 km/h (0 Bft) S-SO 157 0,1 C 0,0 km/h (0 Bft)
24.03.2015 19:50 5,8 C 5,2 C 66 % 1008,1 hPa 0,0 l/m 0,0 km/h (0 Bft) S-SO 157 -0,0 C 0,0 km/h (0 Bft)
24.03.2015 19:55 5,8 C 5,2 C 68 % 1008,1 hPa 0,0 l/m 0,0 km/h (0 Bft) O-SO 112 0,4 C 0,0 km/h (0 Bft)
24.03.2015 20:00 5,7 C 5,1 C 68 % 1008,1 hPa 0,0 l/m 0,0 km/h (0 Bft) S-SO 157 0,3 C 0,0 km/h (0 Bft)
24.03.2015 20:05 5,3 C 4,8 C 68 % 1008,0 hPa 0,0 l/m 0,0 km/h (0 Bft) SO 135 -0,1 C 0,0 km/h (0 Bft)
24.03.2015 20:10 5,6 C 4,9 C 70 % 1008,0 hPa 0,0 l/m 0,0 km/h (0 Bft) S-SO 157 0,6 C 0,0 km/h (0 Bft)
24.03.2015 20:15 5,2 C 4,7 C 69 % 1008,0 hPa 0,0 l/m 0,0 km/h (0 Bft) S-SO 157 -0,0 C 0,0 km/h (0 Bft)
24.03.2015 20:20 5,0 C 4,5 C 69 % 1008,0 hPa 0,0 l/m 0,0 km/h (0 Bft) S-SO 157 -0,2 C 0,0 km/h (0 Bft)
24.03.2015 20:25 4,1 C 3,8 C 68 % 1007,9 hPa 0,0 l/m 0,0 km/h (0 Bft) S 180 -1,3 C 0,0 km/h (0 Bft)
24.03.2015 20:30 4,2 C 3,8 C 70 % 1007,9 hPa 0,0 l/m 0,0 km/h (0 Bft) S 180 -0,8 C 0,0 km/h (0 Bft)
24.03.2015 20:35 4,0 C 3,5 C 70 % 1007,9 hPa 0,0 l/m 0,0 km/h (0 Bft) O-SO 112 -1,0 C 0,0 km/h (0 Bft)
24.03.2015 20:40 3,7 C 3,3 C 70 % 1007,9 hPa 0,0 l/m 0,0 km/h (0 Bft) S 180 -1,3 C 0,0 km/h (0 Bft)
24.03.2015 20:45 3,5 C 3,1 C 74 % 1007,9 hPa 0,0 l/m 0,0 km/h (0 Bft) W-SW 247 -0,7 C 0,0 km/h (0 Bft)
24.03.2015 20:50 3,6 C 3,1 C 74 % 1007,9 hPa 0,0 l/m 0,2 km/h (0 Bft) S-SW 202 -0,6 C 4,7 km/h (1 Bft)
24.03.2015 20:55 4,5 C 3,9 C 76 % 1007,9 hPa 0,0 l/m 0,8 km/h (0 Bft) O-SO 112 0,6 C 0,0 km/h (0 Bft)
24.03.2015 21:00 4,5 C 3,9 C 76 % 1007,9 hPa 0,0 l/m 1,1 km/h (1 Bft) S-SO 157 0,6 C 2,3 km/h (1 Bft)
24.03.2015 21:05 4,6 C 4,3 C 75 % 1007,8 hPa 0,0 l/m 1,9 km/h (1 Bft) S-SO 157 0,6 C 2,7 km/h (1 Bft)
24.03.2015 21:10 4,4 C 4,2 C 76 % 1007,8 hPa 0,0 l/m 3,1 km/h (1 Bft) S 180 0,5 C 2,9 km/h (1 Bft)
24.03.2015 21:15 3,9 C 4,0 C 76 % 1007,8 hPa 0,0 l/m 2,6 km/h (1 Bft) SO 135 0,1 C 0,0 km/h (0 Bft)
24.03.2015 21:20 3,6 C 3,6 C 76 % 1007,8 hPa 0,0 l/m 1,1 km/h (1 Bft) O 90 -0,2 C 0,0 km/h (0 Bft)
24.03.2015 21:25 2,9 C 2,8 C 76 % 1007,9 hPa 0,0 l/m 0,0 km/h (0 Bft) O 90 -0,9 C 0,0 km/h (0 Bft)
24.03.2015 21:30 2,5 C 2,3 C 75 % 1007,9 hPa 0,0 l/m 0,0 km/h (0 Bft) O 90 -1,5 C 0,0 km/h (0 Bft)
24.03.2015 21:35 2,4 C 2,0 C 76 % 1007,9 hPa 0,0 l/m 0,0 km/h (0 Bft) O 90 -1,4 C 0,0 km/h (0 Bft)
24.03.2015 21:37 2,3 C 1,9 C 77 % 1007,9 hPa 0,0 l/m 0,0 km/h (0 Bft) O 90 -1,3 C 0,0 km/h (0 Bft)
24.03.2015 21:42 2,4 C 1,8 C 78 % 1008,0 hPa 0,0 l/m 0,0 km/h (0 Bft) O 90 -1,0 C 0,0 km/h (0 Bft)
24.03.2015 21:47 1,9 C 1,5 C 78 % 1008,0 hPa 0,0 l/m 0,0 km/h (0 Bft) O 90 -1,5 C 0,0 km/h (0 Bft)
24.03.2015 21:52 1,7 C 1,3 C 77 % 1008,0 hPa 0,0 l/m 0,0 km/h (0 Bft) O-SO 112 -1,9 C 0,0 km/h (0 Bft)
24.03.2015 21:57 1,6 C 1,1 C 77 % 1008,0 hPa 0,0 l/m 0,0 km/h (0 Bft) O-SO 112 -2,0 C 0,0 km/h (0 Bft)
24.03.2015 22:02 1,6 C 1,1 C 77 % 1007,7 hPa 0,0 l/m 0,0 km/h (0 Bft) O-SO 112 -2,0 C 0,0 km/h (0 Bft)
24.03.2015 22:07 1,4 C 0,9 C 77 % 1007,7 hPa 0,0 l/m 0,0 km/h (0 Bft) O 90 -2,2 C 0,0 km/h (0 Bft)
24.03.2015 22:12 1,4 C 0,9 C 78 % 1007,7 hPa 0,0 l/m 0,0 km/h (0 Bft) O-NO 67 -2,0 C 0,0 km/h (0 Bft)
24.03.2015 22:17 1,3 C 0,8 C 78 % 1007,7 hPa 0,0 l/m 0,0 km/h (0 Bft) O-NO 67 -2,1 C 0,0 km/h (0 Bft)
24.03.2015 22:22 1,5 C 0,9 C 78 % 1007,6 hPa 0,0 l/m 0,2 km/h (0 Bft) W-NW 292 -1,9 C 2,1 km/h (1 Bft)
24.03.2015 22:27 1,8 C 1,2 C 79 % 1007,6 hPa 0,0 l/m 0,2 km/h (0 Bft) O 90 -1,4 C 0,0 km/h (0 Bft)
24.03.2015 22:32 1,9 C 1,3 C 79 % 1007,6 hPa 0,0 l/m 0,2 km/h (0 Bft) O 90 -1,3 C 0,0 km/h (0 Bft)
24.03.2015 22:37 2,1 C 1,6 C 79 % 1007,6 hPa 0,0 l/m 0,0 km/h (0 Bft) O-NO 67 -1,2 C 0,0 km/h (0 Bft)
24.03.2015 22:42 2,3 C 1,9 C 79 % 1007,6 hPa 0,0 l/m 0,0 km/h (0 Bft) W-NW 292 -1,0 C 0,0 km/h (0 Bft)
24.03.2015 22:47 3,2 C 2,6 C 79 % 1007,6 hPa 0,0 l/m 0,0 km/h (0 Bft) S-SO 157 -0,1 C 0,0 km/h (0 Bft)
24.03.2015 22:52 3,3 C 2,8 C 77 % 1007,6 hPa 0,0 l/m 0,0 km/h (0 Bft) SO 135 -0,3 C 0,0 km/h (0 Bft)
24.03.2015 22:57 3,7 C 3,1 C 76 % 1007,6 hPa 0,0 l/m 0,0 km/h (0 Bft) SO 135 -0,1 C 0,0 km/h (0 Bft)
24.03.2015 23:02 4,2 C 3,5 C 74 % 1007,2 hPa 0,0 l/m 0,0 km/h (0 Bft) S-SO 157 -0,0 C 0,0 km/h (0 Bft)
24.03.2015 23:07 4,4 C 3,7 C 73 % 1007,2 hPa 0,0 l/m 0,0 km/h (0 Bft) SO 135 -0,0 C 0,0 km/h (0 Bft)
24.03.2015 23:12 4,4 C 3,8 C 72 % 1007,2 hPa 0,0 l/m 0,0 km/h (0 Bft) S 180 -0,2 C 0,0 km/h (0 Bft)
24.03.2015 23:17 4,5 C 3,9 C 71 % 1007,2 hPa 0,0 l/m 0,0 km/h (0 Bft) O-SO 112 -0,3 C 0,0 km/h (0 Bft)
24.03.2015 23:22 3,9 C 3,5 C 70 % 1007,3 hPa 0,0 l/m 0,0 km/h (0 Bft) S 180 -1,1 C 0,0 km/h (0 Bft)
24.03.2015 23:27 3,7 C 3,3 C 70 % 1007,3 hPa 0,0 l/m 0,0 km/h (0 Bft) SO 135 -1,3 C 0,0 km/h (0 Bft)
24.03.2015 23:32 3,5 C 3,1 C 70 % 1007,3 hPa 0,0 l/m 0,0 km/h (0 Bft) SO 135 -1,4 C 0,0 km/h (0 Bft)
24.03.2015 23:37 4,2 C 3,6 C 71 % 1007,3 hPa 0,0 l/m 0,0 km/h (0 Bft) SO 135 -0,6 C 0,0 km/h (0 Bft)
24.03.2015 23:42 3,9 C 3,5 C 70 % 1007,3 hPa 0,0 l/m 0,0 km/h (0 Bft) SO 135 -1,1 C 0,0 km/h (0 Bft)
24.03.2015 23:47 3,5 C 3,1 C 70 % 1007,3 hPa 0,0 l/m 0,0 km/h (0 Bft) S 180 -1,4 C 0,0 km/h (0 Bft)
24.03.2015 23:52 3,2 C 2,9 C 70 % 1007,3 hPa 0,0 l/m 0,0 km/h (0 Bft) O 90 -1,7 C 0,0 km/h (0 Bft)
24.03.2015 23:57 3,5 C 3,1 C 70 % 1007,3 hPa 0,0 l/m 0,0 km/h (0 Bft) O-SO 112 -1,4 C 0,0 km/h (0 Bft)
_ Min-Zeit 05:40 05:40 15:10 23:17 - 23:57 - - 06:55 23:57
Minimum _ -1,8 C -2,1 C 44 % 1007,2 hPa - 0,0 km/h (0 Bft) - - -3,0 C 0,0 km/h (0 Bft)
_ Max-Zeit 13:20 13:15 07:30 00:20 23:57 11:00 - - 09:50 13:25
Maximum _ 15,2 C 21,4 C 93 % 1011,6 hPa 0,0 l/m 3,9 km/h
NW (1 Bft)
- - 6,4 C 10,8 km/h
NW (2 Bft)
Durchschnitt _ 5,7 C 7,5 C 72 % 1009,6 hPa #0,0 l/m 0,5 km/h (0 Bft) O-NO - 0,5 C 0,7 km/h (0 Bft)